Terminal Aerodrome Forecast
Issued by NWS

Home | Current Version | Previous Version | Text Only | Print | Product List | Glossary On
Versions: 1 2 3 4 5 6 7 8 9 10 11 12 13 14 15 16 17 18 19 20
000
FTUS41 KBTV 230100 AAA
TAFSLK
TAF AMD
KSLK 230114Z 2301/2324 VRB03KT P6SM BKN019 OVC045
      TEMPO 2302/2306 SCT020 OVC045
     FM230600 VRB03KT P6SM OVC045
     FM231400 24009KT P6SM BKN045
     FM232100 26006KT P6SM SCT045=

USA.gov is the U.S. government's official web portal to all federal, state and local government web resources and services.